Time;durP1;ratioP1;P1;durP2;ratioP2;P2;SDS_P1;SDS_P2;PMS_P1;PMS_P2;Temp;Humidity;BMP_temperature;BMP_pressure;BME280_temperature;BME280_humidity;BME280_pressure;Samples;Min_cycle;Max_cycle;Signal;HPM_P1;HPM_P2
2024/02/21 00:01:08;;;;;;;7.00;2.67;;;;;;;10.00;73.67;99772.16;6352290;22;41901;-84
2024/02/21 00:03:35;;;;;;;5.43;2.50;;;;;;;9.91;73.80;99749.59;6378814;22;44341;-84
2024/02/21 00:06:03;;;;;;;7.37;2.80;;;;;;;9.93;73.54;99744.25;6352469;22;42458;-84
2024/02/21 00:08:30;;;;;;;5.30;2.00;;;;;;;9.95;73.31;99753.84;6352608;22;39121;-84
2024/02/21 00:10:58;;;;;;;7.37;2.77;;;;;;;9.96;72.92;99744.97;6352586;22;40856;-83
2024/02/21 00:13:27;;;;;;;7.30;2.17;;;;;;;10.01;73.16;99747.41;6352244;22;43171;-85
2024/02/21 00:15:55;;;;;;;6.17;2.57;;;;;;;10.01;73.39;99747.41;6403261;22;42960;-84
2024/02/21 00:18:23;;;;;;;5.60;2.50;;;;;;;9.95;74.07;99731.81;6351208;22;40519;-85
2024/02/21 00:20:50;;;;;;;6.63;2.50;;;;;;;9.95;74.03;99737.09;6351520;22;41141;-84
2024/02/21 00:23:18;;;;;;;7.23;2.60;;;;;;;9.94;73.95;99724.78;6351081;22;43499;-84
2024/02/21 00:25:46;;;;;;;5.17;2.87;;;;;;;10.01;74.06;99739.47;6351416;22;41958;-84
2024/02/21 00:28:13;;;;;;;6.60;2.80;;;;;;;10.02;73.72;99733.22;6377413;22;38949;-84
2024/02/21 00:30:42;;;;;;;8.20;2.53;;;;;;;10.01;74.01;99736.84;6378154;22;42420;-84
2024/02/21 00:33:10;;;;;;;5.13;2.70;;;;;;;9.99;73.63;99733.41;6377246;22;42910;-84
2024/02/21 00:35:38;;;;;;;5.97;2.40;;;;;;;9.92;73.90;99713.41;6351227;22;43781;-84
2024/02/21 00:38:05;;;;;;;7.03;2.63;;;;;;;9.89;74.02;99716.22;6350930;22;38934;-84
2024/02/21 00:40:33;;;;;;;5.93;2.67;;;;;;;9.85;74.38;99715.50;6350565;22;40796;-84
2024/02/21 00:43:01;;;;;;;3.23;2.67;;;;;;;9.87;74.13;99712.78;6350771;22;43777;-84
2024/02/21 00:45:28;;;;;;;4.17;2.40;;;;;;;9.89;73.72;99711.78;6377569;22;43385;-84
2024/02/21 00:47:57;;;;;;;4.27;2.13;;;;;;;9.90;74.05;99712.63;6350985;22;39155;-84
2024/02/21 00:50:25;;;;;;;8.07;2.90;;;;;;;9.79;74.21;99691.09;6351316;22;40688;-85
2024/02/21 00:52:52;;;;;;;4.50;2.50;;;;;;;9.85;73.79;99704.06;6351106;22;43103;-84
2024/02/21 00:55:20;;;;;;;4.90;2.73;;;;;;;9.72;73.87;99678.19;6404055;22;42450;-84
2024/02/21 00:57:49;;;;;;;5.23;2.13;;;;;;;9.68;74.87;99687.16;6378047;22;39241;-87
2024/02/21 01:00:17;;;;;;;6.10;2.90;;;;;;;9.62;74.93;99671.59;6352152;22;40974;-84
2024/02/21 01:02:44;;;;;;;7.23;2.70;;;;;;;9.64;74.86;99667.06;6352481;22;41819;-84
2024/02/21 01:05:13;;;;;;;7.23;2.43;;;;;;;9.42;74.89;99634.59;6379086;22;42291;-84
2024/02/21 01:07:41;;;;;;;6.10;2.40;;;;;;;9.71;75.22;99683.53;6379248;22;40712;-84
2024/02/21 01:10:09;;;;;;;7.27;2.47;;;;;;;9.69;75.56;99675.66;6352271;22;42114;-84
2024/02/21 01:12:37;;;;;;;4.63;2.40;;;;;;;9.59;75.07;99660.28;6351906;22;41992;-84
2024/02/21 01:15:06;;;;;;;6.00;2.90;;;;;;;9.58;75.49;99663.84;6405555;22;42362;-85
2024/02/21 01:17:33;;;;;;;6.63;2.63;;;;;;;9.53;75.86;99661.41;6352353;22;40338;-84
2024/02/21 01:20:01;;;;;;;4.20;2.30;;;;;;;9.51;76.08;99652.72;6352406;22;41818;-83
2024/02/21 01:22:30;;;;;;;7.73;2.67;;;;;;;9.55;75.91;99659.56;6378534;22;42529;-85
2024/02/21 01:24:57;;;;;;;9.33;3.00;;;;;;;9.53;76.72;99660.56;6352457;22;41260;-84
2024/02/21 01:27:25;;;;;;;9.40;3.23;;;;;;;9.42;77.14;99634.59;6377968;22;40161;-85
2024/02/21 01:29:52;;;;;;;6.80;2.73;;;;;;;9.45;76.96;99628.31;6376478;22;41755;-86
2024/02/21 01:32:20;;;;;;;6.67;2.80;;;;;;;9.44;77.13;99630.09;6350990;22;42069;-83
2024/02/21 01:34:47;;;;;;;7.30;2.97;;;;;;;9.43;76.76;99617.81;6351250;22;42183;-84
2024/02/21 01:37:15;;;;;;;7.80;2.83;;;;;;;9.52;76.35;99633.25;6377004;22;40190;-84
2024/02/21 01:39:44;;;;;;;7.83;3.50;;;;;;;9.62;76.30;99645.16;6403773;22;41534;-84
2024/02/21 01:42:11;;;;;;;7.10;2.60;;;;;;;9.54;75.99;99620.81;6350322;22;41718;-85
2024/02/21 01:44:39;;;;;;;5.53;2.70;;;;;;;9.62;75.93;99634.56;6351363;22;41359;-84
2024/02/21 01:47:07;;;;;;;7.33;2.80;;;;;;;9.73;75.84;99647.28;6376763;22;39988;-85
2024/02/21 01:49:35;;;;;;;6.03;2.40;;;;;;;9.68;75.67;99628.13;6377169;22;41734;-84
2024/02/21 01:52:04;;;;;;;5.97;2.90;;;;;;;9.67;75.83;99621.97;6376995;22;43443;-83
2024/02/21 01:54:32;;;;;;;5.60;3.00;;;;;;;9.72;75.52;99619.13;6378691;22;42284;-83
2024/02/21 01:57:02;;;;;;;7.17;2.47;;;;;;;9.77;75.13;99618.91;6352066;22;39192;-85
2024/02/21 01:59:30;;;;;;;5.40;3.00;;;;;;;9.85;75.14;99628.19;6379259;22;41404;-84
2024/02/21 02:01:59;;;;;;;8.23;2.90;;;;;;;9.76;75.40;99609.25;6379597;22;42731;-83
2024/02/21 02:04:27;;;;;;;5.10;2.70;;;;;;;9.75;75.46;99596.97;6353759;22;41270;-83
2024/02/21 02:06:55;;;;;;;6.87;2.80;;;;;;;9.73;75.83;99599.69;6353281;22;38675;-84
2024/02/21 02:09:23;;;;;;;5.77;2.40;;;;;;;9.75;76.04;99603.13;6379617;22;42158;-83
2024/02/21 02:11:51;;;;;;;5.10;2.37;;;;;;;9.64;76.59;99587.72;6352613;22;42912;-84
2024/02/21 02:14:20;;;;;;;9.33;3.43;;;;;;;9.62;77.51;99605.47;6387780;22;41274;-85
2024/02/21 02:16:48;;;;;;;5.47;2.60;;;;;;;9.66;77.88;99614.97;6376421;22;38523;-84
2024/02/21 02:19:16;;;;;;;5.07;2.47;;;;;;;9.61;78.10;99614.34;6379726;22;42265;-84
2024/02/21 02:21:55;;;;;;;8.90;2.60;;;;;;;9.52;78.40;99606.81;6352931;22;43028;-84
2024/02/21 02:24:25;;;;;;;4.00;2.27;;;;;;;9.47;79.05;99603.53;6353615;22;42311;-84
2024/02/21 02:26:53;;;;;;;6.30;2.60;;;;;;;9.45;79.93;99602.75;6353745;22;38689;-84
2024/02/21 02:29:20;;;;;;;8.67;3.00;;;;;;;9.39;80.57;99595.09;6351572;22;40851;-84
2024/02/21 02:31:48;;;;;;;8.03;2.87;;;;;;;9.38;81.28;99588.09;6351444;22;42227;-84
2024/02/21 02:34:15;;;;;;;5.33;2.73;;;;;;;9.32;81.16;99577.81;6352000;22;41274;-83
2024/02/21 02:36:43;;;;;;;4.80;2.67;;;;;;;9.37;82.32;99581.09;6352036;22;38995;-83
2024/02/21 02:39:10;;;;;;;5.33;2.53;;;;;;;9.34;82.42;99571.53;6351685;22;42139;-83
2024/02/21 02:41:39;;;;;;;7.97;3.13;;;;;;;9.21;83.04;99548.34;6351529;22;41776;-83
2024/02/21 02:44:07;;;;;;;6.47;3.13;;;;;;;9.15;84.72;99533.63;6378207;22;41128;-83
2024/02/21 02:46:35;;;;;;;9.50;2.90;;;;;;;9.12;84.93;99527.66;6378522;22;39731;-84
2024/02/21 02:49:02;;;;;;;7.03;3.40;;;;;;;9.09;85.15;99525.13;6378185;22;40863;-84
2024/02/21 02:51:30;;;;;;;8.47;2.80;;;;;;;9.19;85.18;99544.94;6351842;22;41561;-85
2024/02/21 02:53:57;;;;;;;10.03;3.77;;;;;;;9.07;86.09;99524.34;6352138;22;41375;-84
2024/02/21 02:56:25;;;;;;;9.57;3.50;;;;;;;9.13;86.18;99545.22;6351261;22;39004;-84
2024/02/21 02:58:54;;;;;;;8.30;3.40;;;;;;;9.02;86.98;99535.97;6351939;22;42122;-84
2024/02/21 03:01:21;;;;;;;7.30;2.87;;;;;;;9.02;87.24;99544.84;6378801;22;42796;-84
2024/02/21 03:03:49;;;;;;;6.70;2.80;;;;;;;9.02;86.88;99554.47;6379507;22;41364;-83
2024/02/21 03:06:16;;;;;;;8.27;3.33;;;;;;;9.00;87.37;99545.78;6353054;22;38899;-84
2024/02/21 03:08:44;;;;;;;5.47;2.63;;;;;;;8.98;87.97;99542.34;6379826;22;41915;-84
2024/02/21 03:11:12;;;;;;;11.20;3.20;;;;;;;8.99;88.24;99549.34;6378614;22;41790;-84
2024/02/21 03:13:39;;;;;;;6.37;2.87;;;;;;;8.86;89.62;99516.47;6352914;22;41129;-84
2024/02/21 03:16:08;;;;;;;8.10;3.53;;;;;;;8.96;89.23;99538.03;6350340;22;38958;-84
2024/02/21 03:18:36;;;;;;;5.50;3.10;;;;;;;8.97;89.35;99551.19;6378092;22;42192;-82
2024/02/21 03:21:05;;;;;;;7.17;3.70;;;;;;;8.98;88.78;99552.91;6351613;22;41564;-84
2024/02/21 03:23:32;;;;;;;8.20;3.10;;;;;;;8.97;88.33;99545.06;6351589;22;41960;-84
2024/02/21 03:26:00;;;;;;;7.20;2.70;;;;;;;9.13;88.25;99561.06;6351680;22;39944;-84
2024/02/21 03:28:27;;;;;;;9.40;3.03;;;;;;;9.05;88.62;99539.41;6351604;22;42181;-83
2024/02/21 03:30:55;;;;;;;4.37;2.77;;;;;;;9.12;87.63;99552.28;6404680;22;42735;-84
2024/02/21 03:33:24;;;;;;;4.03;2.30;;;;;;;9.11;86.94;99539.16;6351438;22;41088;-84
2024/02/21 03:35:51;;;;;;;5.63;2.97;;;;;;;9.10;86.97;99535.66;6351821;22;38860;-85
2024/02/21 03:38:20;;;;;;;4.93;2.73;;;;;;;9.07;86.85;99535.78;6351346;22;42979;-84
2024/02/21 03:40:47;;;;;;;4.20;2.47;;;;;;;9.07;86.43;99530.50;6351453;22;42830;-83
2024/02/21 03:43:15;;;;;;;6.27;3.37;;;;;;;9.06;87.24;99535.84;6351254;22;40992;-84
2024/02/21 03:45:43;;;;;;;7.70;3.10;;;;;;;9.12;88.38;99540.88;6351799;22;39055;-84
2024/02/21 03:48:10;;;;;;;5.47;3.00;;;;;;;9.02;87.48;99522.75;6405608;22;42708;-84
2024/02/21 03:50:39;;;;;;;7.70;2.87;;;;;;;9.05;87.25;99528.84;6351703;22;43454;-84
2024/02/21 03:53:07;;;;;;;4.77;2.80;;;;;;;9.02;87.61;99521.09;6377421;22;43201;-83
2024/02/21 08:40:42;;;;;;;6.57;2.90;;;;;;;16.10;63.43;99440.72;5169806;27;20632;-83
2024/02/21 08:43:10;;;;;;;7.63;3.20;;;;;;;16.55;61.40;99435.50;5151580;27;39167;-84
2024/02/21 08:45:38;;;;;;;5.43;3.03;;;;;;;17.56;59.46;99437.16;5144875;27;40834;-83
2024/02/21 08:48:08;;;;;;;6.93;3.30;;;;;;;18.82;52.74;99467.69;5148072;27;42896;-83
2024/02/21 08:50:36;;;;;;;4.70;2.60;;;;;;;19.43;48.52;99489.16;5130835;27;41614;-86
2024/02/21 08:53:04;;;;;;;6.07;2.77;;;;;;;20.39;47.53;99494.75;5131126;27;39019;-84
2024/02/21 08:55:31;;;;;;;6.37;3.03;;;;;;;20.89;44.39;99508.84;5150478;27;42091;-83
2024/02/21 08:58:04;;;;;;;7.30;3.10;;;;;;;21.60;44.19;99502.94;5168936;27;43842;-85
2024/02/21 09:00:31;;;;;;;6.07;3.03;;;;;;;22.25;42.28;99492.88;5169260;27;41147;-84
2024/02/21 09:02:59;;;;;;;6.70;3.10;;;;;;;22.44;40.80;99509.75;5169940;27;39942;-85
2024/02/21 09:05:26;;;;;;;4.80;2.77;;;;;;;22.80;40.75;99501.63;5152318;27;41083;-83
2024/02/21 09:07:54;;;;;;;6.00;2.87;;;;;;;22.87;39.54;99500.00;5131803;27;41438;-84
2024/02/21 09:10:21;;;;;;;6.07;2.50;;;;;;;22.37;41.51;99470.88;5131562;27;41439;-89
2024/02/21 09:12:49;;;;;;;5.50;2.90;;;;;;;22.48;41.03;99484.13;5149115;27;40265;-89
2024/02/21 09:15:18;;;;;;;8.73;2.80;;;;;;;22.14;40.77;99469.66;5132746;27;40631;-88
2024/02/21 09:17:45;;;;;;;4.67;2.70;;;;;;;22.16;40.24;99473.88;5134460;27;42580;-89
2024/02/21 09:20:16;;;;;;;5.93;2.97;;;;;;;22.66;39.46;99481.41;5130011;27;42281;-87
2024/02/21 09:22:43;;;;;;;5.53;2.37;;;;;;;22.26;39.26;99465.72;5130495;27;40116;-89
2024/02/21 09:25:11;;;;;;;6.33;2.73;;;;;;;21.93;39.59;99450.19;5130521;27;44126;-90
2024/02/21 09:27:39;;;;;;;5.73;2.77;;;;;;;21.59;39.66;99458.09;5147472;27;43232;-87
2024/02/21 09:30:07;;;;;;;4.57;2.07;;;;;;;21.21;40.97;99442.97;5129924;27;41246;-87
2024/02/21 09:32:37;;;;;;;4.67;2.43;;;;;;;20.60;41.48;99405.78;5130582;27;39107;-86
2024/02/21 09:35:06;;;;;;;4.93;2.57;;;;;;;20.48;42.11;99436.53;5130255;27;40538;-88
2024/02/21 09:37:33;;;;;;;6.00;2.73;;;;;;;19.92;42.28;99431.84;5129993;27;43120;-87
2024/02/21 09:40:01;;;;;;;3.30;2.30;;;;;;;19.32;42.89;99414.91;5130010;27;41814;-86
2024/02/21 09:42:37;;;;;;;3.27;2.10;;;;;;;19.13;44.06;99428.28;5147000;27;40139;-87
2024/02/21 09:45:09;;;;;;;3.03;2.27;;;;;;;18.83;44.50;99416.56;5130512;27;40661;-88
2024/02/21 09:48:00;;;;;;;7.90;2.93;;;;;;;18.47;44.61;99409.00;5130133;27;41983;-88
2024/02/21 09:50:32;;;;;;;5.50;2.80;;;;;;;18.11;45.21;99408.50;5142903;27;42021;-88
2024/02/21 09:53:02;;;;;;;5.20;2.30;;;;;;;17.75;46.53;99388.31;5134188;27;40258;-89
2024/02/21 09:55:32;;;;;;;4.77;2.57;;;;;;;17.54;46.36;99392.75;5135671;27;41752;-88
2024/02/21 09:58:03;;;;;;;4.67;2.70;;;;;;;17.20;46.48;99384.78;5154261;27;43408;-88
2024/02/21 10:00:31;;;;;;;3.00;2.03;;;;;;;17.04;47.46;99364.78;5116131;27;40943;-88
2024/02/21 10:03:01;;;;;;;4.10;2.03;;;;;;;16.98;47.89;99370.59;5117628;27;39022;-87
2024/02/21 10:05:28;;;;;;;4.77;2.03;;;;;;;16.79;47.86;99342.66;5117359;27;40760;-87
2024/02/21 10:07:57;;;;;;;6.63;2.50;;;;;;;16.98;48.38;99365.25;5117258;27;44927;-88
2024/02/21 10:10:24;;;;;;;6.10;2.53;;;;;;;17.17;48.06;99360.13;5116772;27;41533;-87
2024/02/21 10:12:54;;;;;;;3.87;2.30;;;;;;;17.59;47.73;99361.06;5135018;27;38781;-86
2024/02/21 10:15:23;;;;;;;6.73;2.30;;;;;;;17.88;46.40;99369.38;5117229;27;40807;-88
2024/02/21 10:17:58;;;;;;;4.57;2.27;;;;;;;18.38;46.48;99361.53;5117339;27;41990;-86
2024/02/21 10:20:28;;;;;;;3.80;2.20;;;;;;;18.82;45.28;99339.72;5132791;27;40707;-88
2024/02/21 10:23:03;;;;;;;4.50;2.20;;;;;;;19.46;44.08;99382.28;5117388;27;40315;-87
2024/02/21 10:25:30;;;;;;;4.30;1.87;;;;;;;19.35;43.21;99363.59;5132203;27;42066;-87
2024/02/21 10:27:58;;;;;;;5.07;2.07;;;;;;;19.46;43.08;99387.66;5116700;27;41659;-85
2024/02/21 10:30:26;;;;;;;5.57;2.03;;;;;;;19.36;43.16;99381.41;5150519;27;41401;-87
2024/02/21 10:32:55;;;;;;;5.53;2.20;;;;;;;19.25;43.06;99385.06;5139536;27;39221;-88
2024/02/21 10:35:31;;;;;;;4.40;2.00;;;;;;;18.92;43.43;99378.19;5120615;27;41253;-89
2024/02/21 10:38:00;;;;;;;4.40;2.07;;;;;;;18.54;43.91;99361.91;5136782;27;43573;-89
2024/02/21 10:40:30;;;;;;;4.27;2.30;;;;;;;18.55;44.07;99363.56;5135421;27;41321;-90
2024/02/21 10:42:59;;;;;;;4.27;2.17;;;;;;;18.37;44.20;99314.25;5136458;27;39488;-89
2024/02/21 10:45:39;;;;;;;5.57;2.23;;;;;;;18.69;44.35;99349.84;5137522;27;40917;-90
2024/02/21 10:48:11;;;;;;;5.30;2.13;;;;;;;18.83;44.66;99346.78;5136483;27;41888;-90
2024/02/21 10:50:54;;;;;;;4.73;2.33;;;;;;;18.98;43.22;99345.44;5136713;27;40942;-88
2024/02/21 10:53:33;;;;;;;4.53;2.03;;;;;;;19.13;43.06;99310.16;5136134;27;40716;-88
2024/02/21 10:56:12;;;;;;;4.97;2.10;;;;;;;19.63;42.49;99330.59;5136333;27;41016;-88
2024/02/21 10:58:40;;;;;;;4.17;2.13;;;;;;;19.77;41.76;99306.97;5135853;27;43465;-89
2024/02/21 11:01:09;;;;;;;5.60;2.10;;;;;;;20.09;41.29;99277.88;5136990;27;42887;-85
2024/02/21 11:03:37;;;;;;;5.33;1.80;;;;;;;21.14;40.74;99308.84;5135994;27;39165;-87
2024/02/21 11:06:08;;;;;;;3.17;1.80;;;;;;;21.88;39.50;99292.38;5154830;27;40792;-88
2024/02/21 11:08:36;;;;;;;6.43;2.30;;;;;;;22.93;37.97;99338.13;5134221;27;42105;-87
2024/02/21 11:11:05;;;;;;;5.17;2.23;;;;;;;23.45;36.82;99342.50;5133866;27;40903;-85
2024/02/21 11:13:33;;;;;;;3.20;1.90;;;;;;;23.82;35.31;99328.53;5116569;27;39447;-88
2024/02/21 11:16:10;;;;;;;5.00;1.83;;;;;;;23.71;36.29;99320.75;5116532;27;40902;-85
2024/02/21 11:18:38;;;;;;;5.00;1.80;;;;;;;23.59;35.46;99317.53;5130937;27;43913;-86
2024/02/21 11:21:06;;;;;;;6.30;2.00;;;;;;;23.67;36.26;99312.13;5133704;27;43158;-88
2024/02/21 11:23:34;;;;;;;5.03;1.90;;;;;;;23.85;35.41;99310.13;5116295;27;38766;-89
2024/02/21 11:26:06;;;;;;;4.17;2.40;;;;;;;23.86;36.06;99292.84;5115801;27;41266;-89
2024/02/21 11:28:34;;;;;;;5.07;1.70;;;;;;;24.17;34.80;99300.28;5114184;27;42929;-92
2024/02/21 11:31:13;;;;;;;5.87;2.00;;;;;;;24.14;35.01;99292.50;5115260;27;43608;-86
2024/02/21 11:33:42;;;;;;;4.43;1.83;;;;;;;24.01;34.61;99303.84;5114398;27;41071;-85
2024/02/21 11:36:11;;;;;;;3.93;1.70;;;;;;;23.55;35.21;99283.72;5132078;27;41823;-87
2024/02/21 11:38:39;;;;;;;3.13;1.57;;;;;;;23.28;35.48;99277.59;5114278;27;42087;-91
2024/02/21 11:41:09;;;;;;;3.83;1.83;;;;;;;23.30;35.59;99285.53;5115174;27;42786;-87
2024/02/21 11:43:37;;;;;;;3.93;1.97;;;;;;;23.40;34.94;99280.81;5114537;27;39132;-87
2024/02/21 11:46:05;;;;;;;5.90;2.03;;;;;;;23.19;36.13;99264.22;5132178;27;41121;-88
2024/02/21 11:48:33;;;;;;;2.37;1.63;;;;;;;23.03;35.67;99259.63;5134143;27;43855;-86
2024/02/21 11:51:03;;;;;;;6.13;2.27;;;;;;;23.05;35.50;99251.38;5114807;27;43336;-93
2024/02/21 11:53:33;;;;;;;3.90;2.03;;;;;;;23.23;35.34;99261.03;5114587;27;38814;-88
2024/02/21 11:56:00;;;;;;;4.63;2.00;;;;;;;23.56;34.95;99247.56;5114468;27;40966;-89
2024/02/21 11:58:28;;;;;;;6.97;1.80;;;;;;;24.34;34.47;99255.94;5131476;27;43011;-86
2024/02/21 12:00:55;;;;;;;5.30;1.50;;;;;;;25.12;32.80;99247.81;5115601;27;42563;-88
2024/02/21 12:03:23;;;;;;;5.70;1.90;;;;;;;25.87;32.00;99253.34;5117852;27;40102;-89
2024/02/21 12:05:51;;;;;;;3.73;1.60;;;;;;;26.35;31.26;99248.47;5136322;27;40673;-87
2024/02/21 12:08:19;;;;;;;4.57;1.87;;;;;;;26.45;30.52;99254.50;5136213;27;42675;-85
2024/02/21 12:10:51;;;;;;;3.50;2.20;;;;;;;26.86;29.90;99248.53;5136458;27;42645;-86
2024/02/21 12:13:18;;;;;;;4.40;1.57;;;;;;;27.49;30.05;99231.47;5135919;27;38915;-86
2024/02/21 12:15:49;;;;;;;5.30;2.03;;;;;;;27.80;28.78;99221.13;5114159;27;40976;-86
2024/02/21 12:18:17;;;;;;;3.88;1.83;;;;;;;28.24;28.30;99239.88;5131402;27;42304;-88
2024/02/21 12:20:46;;;;;;;4.47;1.90;;;;;;;28.26;28.52;99222.50;5114038;27;41021;-84
2024/02/21 12:23:13;;;;;;;2.67;1.77;;;;;;;27.89;27.73;99240.84;5131448;27;39120;-85
2024/02/21 12:25:41;;;;;;;3.67;1.70;;;;;;;27.34;28.47;99231.53;5113830;27;41247;-85
2024/02/21 12:28:10;;;;;;;3.10;1.60;;;;;;;27.24;28.92;99231.00;5131301;27;42782;-85
2024/02/21 12:30:39;;;;;;;4.67;1.40;;;;;;;26.70;29.17;99217.84;5131177;27;42649;-82
2024/02/21 12:33:07;;;;;;;3.67;1.83;;;;;;;26.16;30.40;99213.72;5131081;27;38882;-84
2024/02/21 12:35:34;;;;;;;2.63;1.60;;;;;;;25.73;31.01;99203.44;5113920;27;40841;-84
2024/02/21 12:38:02;;;;;;;4.57;2.10;;;;;;;25.17;31.20;99180.34;5131106;27;43028;-83
2024/02/21 12:40:32;;;;;;;4.33;1.40;;;;;;;24.74;31.64;99173.66;5113096;27;42011;-88
2024/02/21 12:43:02;;;;;;;4.20;1.63;;;;;;;24.23;31.73;99167.00;5131281;27;39095;-90
2024/02/21 12:45:31;;;;;;;3.67;1.67;;;;;;;23.62;32.92;99144.97;5113956;27;40811;-88
2024/02/21 12:47:59;;;;;;;5.27;2.00;;;;;;;23.24;33.21;99156.50;5131245;27;42238;-89
2024/02/21 12:50:26;;;;;;;4.97;1.67;;;;;;;22.62;33.74;99122.81;5113580;27;41146;-89
2024/02/21 12:52:54;;;;;;;4.37;1.63;;;;;;;22.20;33.96;99140.72;5114293;27;40492;-90
2024/02/21 12:55:29;;;;;;;3.93;1.97;;;;;;;21.65;34.26;99129.44;5130565;27;40866;-92
2024/02/21 12:57:59;;;;;;;4.10;1.87;;;;;;;21.08;34.89;99109.31;5113860;27;42279;-92
2024/02/21 13:00:35;;;;;;;6.37;2.27;;;;;;;20.61;35.67;99095.28;5114903;27;42725;-92
2024/02/21 13:03:03;;;;;;;3.97;1.90;;;;;;;20.55;35.85;99101.25;5115335;27;39706;-89
2024/02/21 13:05:34;;;;;;;4.90;1.93;;;;;;;20.71;36.67;99112.19;5114995;27;41166;-92
2024/02/21 13:08:02;;;;;;;3.60;1.50;;;;;;;20.47;36.08;99056.31;5129423;27;43632;-90
2024/02/21 13:10:30;;;;;;;4.53;1.67;;;;;;;20.88;36.63;99095.22;5114688;27;41135;-91
2024/02/21 13:12:58;;;;;;;6.20;1.53;;;;;;;20.52;36.62;99064.78;5132385;27;38687;-89
2024/02/21 13:15:27;;;;;;;3.70;1.37;;;;;;;20.52;36.85;99085.44;5116005;27;41136;-86
2024/02/21 13:17:58;;;;;;;2.23;1.20;;;;;;;20.24;36.82;99077.41;5135462;27;41853;-93
2024/02/21 13:20:26;;;;;;;5.63;1.40;;;;;;;19.83;37.33;99056.41;5136403;27;42347;-92
2024/02/21 13:22:54;;;;;;;4.77;1.40;;;;;;;19.61;38.21;99042.38;5132431;27;39703;-91
2024/02/21 13:25:22;;;;;;;7.10;1.50;;;;;;;19.36;38.45;99022.38;5132312;27;43433;-89
2024/02/21 13:27:49;;;;;;;3.03;1.40;;;;;;;19.36;38.83;99018.84;5130779;27;41981;-90
2024/02/21 13:30:17;;;;;;;4.33;1.50;;;;;;;19.33;38.42;98994.94;5121635;27;41632;-89
2024/02/21 13:32:54;;;;;;;3.47;1.47;;;;;;;19.51;38.45;99025.44;5124855;27;39191;-91
2024/02/21 13:35:23;;;;;;;5.03;1.67;;;;;;;19.44;38.48;99013.56;5133402;27;41779;-91
2024/02/21 13:37:51;;;;;;;4.63;1.90;;;;;;;19.35;39.15;99006.41;5120371;27;42711;-90
2024/02/21 13:40:18;;;;;;;6.20;1.57;;;;;;;19.30;38.73;99027.47;5117116;27;41740;-87
2024/02/21 13:42:46;;;;;;;5.73;1.63;;;;;;;18.91;38.30;99018.69;5128360;27;38981;-88
2024/02/21 13:45:15;;;;;;;2.27;1.20;;;;;;;18.74;38.92;99025.63;5118876;27;40805;-87
2024/02/21 13:47:43;;;;;;;3.13;1.40;;;;;;;18.54;39.39;98994.44;5129073;27;41806;-88
2024/02/21 13:50:11;;;;;;;3.67;1.60;;;;;;;18.56;39.64;99003.16;5130334;27;41071;-90
2024/02/21 13:52:40;;;;;;;2.60;1.43;;;;;;;18.54;39.35;99014.06;5134105;27;40314;-90
2024/02/21 13:55:08;;;;;;;3.27;1.37;;;;;;;18.42;39.62;99014.34;5152565;27;41038;-90
2024/02/21 13:57:36;;;;;;;3.03;1.27;;;;;;;18.28;39.99;98986.97;5116930;27;41762;-94
2024/02/21 14:00:04;;;;;;;3.87;1.33;;;;;;;18.07;39.95;98978.19;5134735;27;41050;-92
2024/02/21 14:02:39;;;;;;;2.30;1.17;;;;;;;18.22;40.47;99008.97;5148448;27;39142;-86
2024/02/21 14:05:08;;;;;;;4.20;1.77;;;;;;;18.16;40.64;99008.69;5135533;27;43197;-94
2024/02/21 14:07:36;;;;;;;3.93;1.43;;;;;;;18.06;40.81;98997.94;5131965;27;41981;-88
2024/02/21 14:10:07;;;;;;;3.70;1.40;;;;;;;17.79;40.44;98985.22;5133545;27;43796;-90
2024/02/21 14:12:34;;;;;;;5.00;1.67;;;;;;;17.65;41.03;98977.59;5127477;27;41914;-88
2024/02/21 14:15:02;;;;;;;4.80;1.30;;;;;;;17.25;41.60;98948.13;5138840;27;41856;-91
2024/02/21 14:17:29;;;;;;;2.67;1.70;;;;;;;17.03;41.46;98948.31;5125910;27;41882;-88
2024/02/21 14:19:57;;;;;;;2.33;1.17;;;;;;;16.74;42.20;98930.28;5120979;27;40907;-86
2024/02/21 14:22:24;;;;;;;4.37;1.80;;;;;;;16.73;42.07;98960.69;5146106;27;40430;-85
2024/02/21 14:24:52;;;;;;;3.87;1.50;;;;;;;16.60;42.65;98960.00;5172796;27;41174;-88
2024/02/21 14:27:21;;;;;;;4.40;1.80;;;;;;;16.42;42.83;98932.19;5159046;27;43981;-89
2024/02/21 14:29:49;;;;;;;3.40;2.00;;;;;;;16.34;43.43;98934.63;5141495;27;42659;-87
2024/02/21 14:32:16;;;;;;;3.63;1.73;;;;;;;16.26;43.25;98929.97;5123402;27;39243;-88
2024/02/21 14:34:44;;;;;;;5.67;1.60;;;;;;;16.24;44.19;98915.03;5122289;27;41549;-88
2024/02/21 14:37:12;;;;;;;3.70;1.80;;;;;;;16.15;43.67;98898.81;5115068;27;41783;-85
2024/02/21 14:39:43;;;;;;;3.27;1.33;;;;;;;16.07;43.86;98889.75;5115478;27;42489;-91
2024/02/21 14:42:10;;;;;;;2.17;1.47;;;;;;;16.17;43.22;98912.03;5115591;27;40264;-87
2024/02/21 14:44:40;;;;;;;4.87;1.60;;;;;;;16.04;43.22;98890.84;5115550;27;40723;-89
2024/02/21 14:47:08;;;;;;;3.73;1.40;;;;;;;16.06;43.41;98912.94;5115020;27;42038;-88
2024/02/21 14:49:36;;;;;;;3.37;1.30;;;;;;;15.92;43.55;98891.03;5115322;27;41421;-88
2024/02/21 14:52:04;;;;;;;3.03;1.43;;;;;;;15.84;44.03;98888.97;5132460;27;39973;-86
2024/02/21 14:54:31;;;;;;;5.83;1.60;;;;;;;15.71;44.63;98869.63;5115063;27;41260;-87
2024/02/21 14:56:59;;;;;;;4.33;1.93;;;;;;;15.80;44.63;98892.91;5131564;27;41680;-86
2024/02/21 14:59:26;;;;;;;3.73;1.70;;;;;;;15.68;44.83;98869.91;5115002;27;43061;-85
2024/02/21 15:01:55;;;;;;;3.13;1.53;;;;;;;15.60;44.83;98878.53;5115629;27;39181;-85
2024/02/21 15:04:23;;;;;;;5.40;2.43;;;;;;;15.39;44.53;98865.09;5133214;27;40817;-85
2024/02/21 15:06:51;;;;;;;4.43;1.70;;;;;;;15.36;44.58;98877.84;5115580;27;41440;-82
2024/02/21 15:09:19;;;;;;;2.83;1.53;;;;;;;15.24;45.41;98873.50;5133930;27;42263;-83
2024/02/21 15:11:46;;;;;;;3.03;1.53;;;;;;;14.97;45.45;98840.09;5117394;27;39600;-85
2024/02/21 15:14:14;;;;;;;5.77;2.00;;;;;;;15.07;45.01;98869.56;5152830;27;42904;-82
2024/02/21 15:16:41;;;;;;;2.43;1.63;;;;;;;14.98;45.55;98851.59;5153859;27;42530;-83
2024/02/21 15:19:10;;;;;;;3.47;1.37;;;;;;;14.90;45.91;98838.03;5168614;27;43184;-84
2024/02/21 15:21:38;;;;;;;4.87;1.23;;;;;;;14.80;46.39;98831.75;5157384;27;40374;-85
2024/02/21 15:24:06;;;;;;;3.73;1.50;;;;;;;14.78;46.49;98829.22;5161874;27;41328;-83
2024/02/21 15:26:33;;;;;;;7.10;1.70;;;;;;;14.65;46.77;98815.16;5130887;27;43332;-83
2024/02/21 15:29:01;;;;;;;3.77;1.73;;;;;;;14.71;47.19;98812.84;5163198;27;41506;-82
2024/02/21 15:31:29;;;;;;;2.67;1.70;;;;;;;14.63;47.35;98806.44;5138221;27;39995;-82
2024/02/21 15:33:57;;;;;;;4.90;1.77;;;;;;;14.45;47.21;98778.63;5157342;27;42057;-83
2024/02/21 15:36:28;;;;;;;3.83;1.60;;;;;;;14.39;47.55;98774.56;5133417;27;43940;-85
2024/02/21 15:38:58;;;;;;;3.53;1.23;;;;;;;14.44;47.82;98787.56;5117516;27;42559;-85
2024/02/21 15:41:25;;;;;;;4.83;1.93;;;;;;;14.38;48.34;98786.19;5147589;27;40421;-84
2024/02/21 15:43:53;;;;;;;4.33;2.10;;;;;;;14.22;48.46;98761.72;5162306;27;40956;-84
2024/02/21 15:46:21;;;;;;;6.63;1.80;;;;;;;14.13;48.63;98747.31;5151509;27;43693;-84
2024/02/21 15:48:52;;;;;;;4.70;1.80;;;;;;;14.16;48.96;98767.56;5142497;27;42413;-84
2024/02/21 15:51:20;;;;;;;4.30;1.50;;;;;;;13.92;49.05;98728.56;5158895;27;38824;-88
2024/02/21 15:53:49;;;;;;;4.07;1.70;;;;;;;13.93;49.48;98735.59;5134394;27;41053;-85
2024/02/21 15:56:17;;;;;;;4.57;1.47;;;;;;;13.92;49.82;98738.38;5145023;27;43079;-83
2024/02/21 15:58:44;;;;;;;3.27;1.47;;;;;;;13.74;49.58;98710.50;5153729;27;43228;-85
2024/02/21 16:01:12;;;;;;;5.07;1.70;;;;;;;13.80;49.95;98729.53;5157866;27;40128;-84
2024/02/21 16:03:40;;;;;;;6.73;2.07;;;;;;;13.60;50.39;98699.13;5147089;27;40674;-85
2024/02/21 16:06:08;;;;;;;3.27;1.40;;;;;;;13.62;50.48;98714.97;5139488;27;43088;-83
2024/02/21 16:08:40;;;;;;;4.03;1.57;;;;;;;13.50;50.68;98705.25;5154890;27;43086;-84
2024/02/21 16:11:16;;;;;;;3.57;1.50;;;;;;;13.45;51.09;98702.97;5157335;27;41092;-85
2024/02/21 16:13:45;;;;;;;5.33;1.47;;;;;;;13.25;51.05;98690.34;5137995;27;42157;-84
2024/02/21 16:16:13;;;;;;;4.77;1.70;;;;;;;13.17;50.83;98688.28;5138441;27;41855;-84
2024/02/21 16:18:40;;;;;;;7.27;2.07;;;;;;;13.17;51.08;98696.25;5148037;27;43107;-85
2024/02/21 16:21:08;;;;;;;3.37;1.90;;;;;;;13.03;51.26;98687.56;5161105;27;40920;-82
2024/02/21 16:23:36;;;;;;;2.90;1.47;;;;;;;13.00;51.13;98693.09;5132884;27;42543;-84
2024/02/21 16:26:03;;;;;;;4.37;1.60;;;;;;;12.85;51.24;98671.22;5131185;27;44193;-85
2024/02/21 16:28:33;;;;;;;2.00;1.37;;;;;;;12.78;51.19;98669.94;5131227;27;42321;-86